Truthville, New York
Current Conditions -  °F | °C
As of 11:12 PM on Thursday 27 Nov 2014 (Local Time) from KGFL Reporting Station
Light Snow Light Snow  
Wind Chill: 27°   Ceiling: 3400
Heat Index: 27°   Visibility: 3mi
Dew Point: 24°   Wind: 3mph
Humidity: 89%   Direction: 20°NNE
Pressure: 30.05"   Gusts: NA
Location:  43.3389°N, 73.3194°W
Report Text: KGFL 280412Z AUTO 02003KT 3SM -SN BR OVC034 M03/M04 A3005 RMK AO2 P0000 T10281044
Loading
Personal Weather Stations






























Interactive Weather Map New forecast layout! Learn more

10-Day Weather Forecast

Advertisements
Track Severe Weather on mobile